Terminal Aerodrome Forecast
Issued by NWS Billings, MT

Home | Current Version | Previous Version | Text Only | Print | Product List | Glossary On
Versions: 1 2 3 4 5 6 7 8 9 10 11 12 13 14 15
000
FTUS45 KBYZ 211006 AAA
TAFBIL
TAF AMD
KBIL 211006Z 2110/2206 23007KT P6SM VCFG FEW001
     FM211030 22006KT 1SM BR SCT002
     FM211500 22009KT P6SM FEW250=

USA.gov is the U.S. government's official web portal to all federal, state and local government web resources and services.